sensor_id;sensor_type;location;lat;lon;timestamp;temperature;humidity
21787;DHT22;11055;50.870;4.316;2022-09-01T00:00:44;21.40;99.90
21787;DHT22;11055;50.870;4.316;2022-09-01T00:03:14;21.60;99.90
21787;DHT22;11055;50.870;4.316;2022-09-01T00:05:39;21.50;99.90
21787;DHT22;11055;50.870;4.316;2022-09-01T00:08:05;21.40;99.90
21787;DHT22;11055;50.870;4.316;2022-09-01T00:10:31;21.40;99.90
21787;DHT22;11055;50.870;4.316;2022-09-01T00:12:56;21.30;99.90
21787;DHT22;11055;50.870;4.316;2022-09-01T00:15:22;21.40;99.90
21787;DHT22;11055;50.870;4.316;2022-09-01T00:17:48;21.40;99.90
21787;DHT22;11055;50.870;4.316;2022-09-01T00:20:13;21.30;99.90
21787;DHT22;11055;50.870;4.316;2022-09-01T00:22:39;21.30;99.90
21787;DHT22;11055;50.870;4.316;2022-09-01T00:25:05;21.30;99.90
21787;DHT22;11055;50.870;4.316;2022-09-01T00:27:32;21.10;99.90
21787;DHT22;11055;50.870;4.316;2022-09-01T00:29:58;21.10;99.90
21787;DHT22;11055;50.870;4.316;2022-09-01T00:32:24;21.10;99.90
21787;DHT22;11055;50.870;4.316;2022-09-01T00:34:49;21.20;99.90
21787;DHT22;11055;50.870;4.316;2022-09-01T00:37:15;21.10;99.90
21787;DHT22;11055;50.870;4.316;2022-09-01T00:39:40;21.00;99.90
21787;DHT22;11055;50.870;4.316;2022-09-01T00:42:08;21.00;99.90
21787;DHT22;11055;50.870;4.316;2022-09-01T00:44:34;21.10;99.90
21787;DHT22;11055;50.870;4.316;2022-09-01T00:47:00;21.30;99.90
21787;DHT22;11055;50.870;4.316;2022-09-01T00:49:28;21.30;99.90
21787;DHT22;11055;50.870;4.316;2022-09-01T00:51:54;21.30;99.90
21787;DHT22;11055;50.870;4.316;2022-09-01T00:54:22;21.40;99.90
21787;DHT22;11055;50.870;4.316;2022-09-01T00:56:48;21.30;99.90
21787;DHT22;11055;50.870;4.316;2022-09-01T00:59:15;21.20;99.90
21787;DHT22;11055;50.870;4.316;2022-09-01T01:01:41;21.20;99.90
21787;DHT22;11055;50.870;4.316;2022-09-01T01:04:07;21.20;99.90
21787;DHT22;11055;50.870;4.316;2022-09-01T01:06:42;21.20;99.90
21787;DHT22;11055;50.870;4.316;2022-09-01T01:09:18;21.20;99.90
21787;DHT22;11055;50.870;4.316;2022-09-01T01:11:44;21.20;99.90
21787;DHT22;11055;50.870;4.316;2022-09-01T01:14:12;21.20;99.90
21787;DHT22;11055;50.870;4.316;2022-09-01T01:16:40;21.10;99.90
21787;DHT22;11055;50.870;4.316;2022-09-01T01:19:55;21.20;99.90
21787;DHT22;11055;50.870;4.316;2022-09-01T01:22:16;21.20;99.90
21787;DHT22;11055;50.870;4.316;2022-09-01T01:25:01;21.20;99.90
21787;DHT22;11055;50.870;4.316;2022-09-01T01:27:31;21.10;99.90
21787;DHT22;11055;50.870;4.316;2022-09-01T01:29:58;21.00;99.90
21787;DHT22;11055;50.870;4.316;2022-09-01T01:32:24;21.10;99.90
21787;DHT22;11055;50.870;4.316;2022-09-01T01:34:50;21.10;99.90
21787;DHT22;11055;50.870;4.316;2022-09-01T01:37:16;21.10;99.90
21787;DHT22;11055;50.870;4.316;2022-09-01T01:39:43;21.10;99.90
21787;DHT22;11055;50.870;4.316;2022-09-01T01:42:09;21.00;99.90
21787;DHT22;11055;50.870;4.316;2022-09-01T01:44:35;20.80;99.90
21787;DHT22;11055;50.870;4.316;2022-09-01T01:47:03;20.80;99.90
21787;DHT22;11055;50.870;4.316;2022-09-01T01:49:33;20.90;99.90
21787;DHT22;11055;50.870;4.316;2022-09-01T01:51:58;20.80;99.90
21787;DHT22;11055;50.870;4.316;2022-09-01T01:54:25;20.70;99.90
21787;DHT22;11055;50.870;4.316;2022-09-01T01:56:55;20.60;99.90
21787;DHT22;11055;50.870;4.316;2022-09-01T01:59:22;20.70;99.90
21787;DHT22;11055;50.870;4.316;2022-09-01T02:01:50;20.60;99.90
21787;DHT22;11055;50.870;4.316;2022-09-01T02:04:17;20.50;99.90
21787;DHT22;11055;50.870;4.316;2022-09-01T02:06:44;20.50;99.90
21787;DHT22;11055;50.870;4.316;2022-09-01T02:09:10;20.50;99.90
21787;DHT22;11055;50.870;4.316;2022-09-01T02:11:36;20.50;99.90
21787;DHT22;11055;50.870;4.316;2022-09-01T02:14:02;20.40;99.90
21787;DHT22;11055;50.870;4.316;2022-09-01T02:16:28;20.30;99.90
21787;DHT22;11055;50.870;4.316;2022-09-01T02:18:54;20.30;99.90
21787;DHT22;11055;50.870;4.316;2022-09-01T02:21:21;20.30;99.90
21787;DHT22;11055;50.870;4.316;2022-09-01T02:23:51;20.30;99.90
21787;DHT22;11055;50.870;4.316;2022-09-01T02:26:26;20.20;99.90
21787;DHT22;11055;50.870;4.316;2022-09-01T02:28:55;20.10;99.90
21787;DHT22;11055;50.870;4.316;2022-09-01T02:31:22;20.20;99.90
21787;DHT22;11055;50.870;4.316;2022-09-01T02:33:48;20.30;99.90
21787;DHT22;11055;50.870;4.316;2022-09-01T02:36:15;20.30;99.90
21787;DHT22;11055;50.870;4.316;2022-09-01T02:38:42;20.20;99.90
21787;DHT22;11055;50.870;4.316;2022-09-01T02:41:08;20.20;99.90
21787;DHT22;11055;50.870;4.316;2022-09-01T02:43:34;20.10;99.90
21787;DHT22;11055;50.870;4.316;2022-09-01T02:46:00;20.10;99.90
21787;DHT22;11055;50.870;4.316;2022-09-01T02:48:33;20.00;99.90
21787;DHT22;11055;50.870;4.316;2022-09-01T02:51:22;20.10;99.90
21787;DHT22;11055;50.870;4.316;2022-09-01T02:53:49;20.10;99.90
21787;DHT22;11055;50.870;4.316;2022-09-01T02:56:18;20.00;99.90
21787;DHT22;11055;50.870;4.316;2022-09-01T02:58:44;19.90;99.90
21787;DHT22;11055;50.870;4.316;2022-09-01T03:01:11;20.00;99.90
21787;DHT22;11055;50.870;4.316;2022-09-01T03:03:37;19.90;99.90
21787;DHT22;11055;50.870;4.316;2022-09-01T03:06:03;20.00;99.90
21787;DHT22;11055;50.870;4.316;2022-09-01T03:08:37;20.00;99.90
21787;DHT22;11055;50.870;4.316;2022-09-01T03:11:03;20.00;99.90
21787;DHT22;11055;50.870;4.316;2022-09-01T03:13:29;20.00;99.90
21787;DHT22;11055;50.870;4.316;2022-09-01T03:15:55;19.90;99.90
21787;DHT22;11055;50.870;4.316;2022-09-01T03:18:21;19.90;99.90
21787;DHT22;11055;50.870;4.316;2022-09-01T03:20:46;19.80;99.90
21787;DHT22;11055;50.870;4.316;2022-09-01T03:23:15;19.90;99.90
21787;DHT22;11055;50.870;4.316;2022-09-01T03:25:42;20.00;99.90
21787;DHT22;11055;50.870;4.316;2022-09-01T03:28:08;19.80;99.90
21787;DHT22;11055;50.870;4.316;2022-09-01T03:30:35;19.70;99.90
21787;DHT22;11055;50.870;4.316;2022-09-01T03:33:02;19.70;99.90
21787;DHT22;11055;50.870;4.316;2022-09-01T03:35:28;19.80;99.90
21787;DHT22;11055;50.870;4.316;2022-09-01T03:37:56;19.70;99.90
21787;DHT22;11055;50.870;4.316;2022-09-01T03:40:24;19.80;99.90
21787;DHT22;11055;50.870;4.316;2022-09-01T03:42:52;19.70;99.90
21787;DHT22;11055;50.870;4.316;2022-09-01T03:45:18;19.70;99.90
21787;DHT22;11055;50.870;4.316;2022-09-01T03:47:44;19.70;99.90
21787;DHT22;11055;50.870;4.316;2022-09-01T03:50:13;19.60;99.90
21787;DHT22;11055;50.870;4.316;2022-09-01T03:52:54;19.50;99.90
21787;DHT22;11055;50.870;4.316;2022-09-01T03:55:25;19.50;99.90
21787;DHT22;11055;50.870;4.316;2022-09-01T03:57:52;19.40;99.90
21787;DHT22;11055;50.870;4.316;2022-09-01T04:00:18;19.40;99.90
21787;DHT22;11055;50.870;4.316;2022-09-01T04:02:50;19.40;99.90
21787;DHT22;11055;50.870;4.316;2022-09-01T04:05:17;19.40;99.90
21787;DHT22;11055;50.870;4.316;2022-09-01T04:07:45;19.60;99.90
21787;DHT22;11055;50.870;4.316;2022-09-01T04:10:11;19.50;99.90
21787;DHT22;11055;50.870;4.316;2022-09-01T04:12:36;19.50;99.90
21787;DHT22;11055;50.870;4.316;2022-09-01T04:15:03;19.50;99.90
21787;DHT22;11055;50.870;4.316;2022-09-01T04:17:29;19.50;99.90
21787;DHT22;11055;50.870;4.316;2022-09-01T04:20:13;19.60;99.90
21787;DHT22;11055;50.870;4.316;2022-09-01T04:22:39;19.50;99.90
21787;DHT22;11055;50.870;4.316;2022-09-01T04:25:05;19.50;99.90
21787;DHT22;11055;50.870;4.316;2022-09-01T04:27:31;19.60;99.90
21787;DHT22;11055;50.870;4.316;2022-09-01T04:29:56;19.60;99.90
21787;DHT22;11055;50.870;4.316;2022-09-01T04:32:22;19.60;99.90
21787;DHT22;11055;50.870;4.316;2022-09-01T04:34:48;19.40;99.90
21787;DHT22;11055;50.870;4.316;2022-09-01T04:37:18;19.40;99.90
21787;DHT22;11055;50.870;4.316;2022-09-01T04:39:51;19.30;99.90
21787;DHT22;11055;50.870;4.316;2022-09-01T04:42:17;19.40;99.90
21787;DHT22;11055;50.870;4.316;2022-09-01T04:44:45;19.30;99.90
21787;DHT22;11055;50.870;4.316;2022-09-01T04:47:11;19.20;99.90
21787;DHT22;11055;50.870;4.316;2022-09-01T04:49:41;19.20;99.90
21787;DHT22;11055;50.870;4.316;2022-09-01T04:52:09;19.30;99.90
21787;DHT22;11055;50.870;4.316;2022-09-01T04:54:36;19.10;99.90
21787;DHT22;11055;50.870;4.316;2022-09-01T04:57:02;19.10;99.90
21787;DHT22;11055;50.870;4.316;2022-09-01T04:59:31;19.20;99.90
21787;DHT22;11055;50.870;4.316;2022-09-01T05:01:56;19.10;99.90
21787;DHT22;11055;50.870;4.316;2022-09-01T05:04:26;19.10;99.90
21787;DHT22;11055;50.870;4.316;2022-09-01T05:06:53;19.10;99.90
21787;DHT22;11055;50.870;4.316;2022-09-01T05:09:24;19.20;99.90
21787;DHT22;11055;50.870;4.316;2022-09-01T05:11:50;19.10;99.90
21787;DHT22;11055;50.870;4.316;2022-09-01T05:14:17;19.10;99.90
21787;DHT22;11055;50.870;4.316;2022-09-01T05:16:43;19.10;99.90
21787;DHT22;11055;50.870;4.316;2022-09-01T05:19:09;19.00;99.90
21787;DHT22;11055;50.870;4.316;2022-09-01T05:21:42;18.90;99.90
21787;DHT22;11055;50.870;4.316;2022-09-01T05:24:12;18.90;99.90
21787;DHT22;11055;50.870;4.316;2022-09-01T05:26:39;19.00;99.90
21787;DHT22;11055;50.870;4.316;2022-09-01T05:29:05;19.10;99.90
21787;DHT22;11055;50.870;4.316;2022-09-01T05:31:37;19.00;99.90
21787;DHT22;11055;50.870;4.316;2022-09-01T05:34:03;18.90;99.90
21787;DHT22;11055;50.870;4.316;2022-09-01T05:36:29;19.00;99.90
21787;DHT22;11055;50.870;4.316;2022-09-01T05:38:58;19.00;99.90
21787;DHT22;11055;50.870;4.316;2022-09-01T05:41:24;19.10;99.90
21787;DHT22;11055;50.870;4.316;2022-09-01T05:43:49;19.10;99.90
21787;DHT22;11055;50.870;4.316;2022-09-01T05:46:18;19.10;99.90
21787;DHT22;11055;50.870;4.316;2022-09-01T05:48:45;19.10;99.90
21787;DHT22;11055;50.870;4.316;2022-09-01T05:51:14;19.10;99.90
21787;DHT22;11055;50.870;4.316;2022-09-01T05:53:42;19.10;99.90
21787;DHT22;11055;50.870;4.316;2022-09-01T05:56:09;19.00;99.90
21787;DHT22;11055;50.870;4.316;2022-09-01T05:58:37;18.90;99.90
21787;DHT22;11055;50.870;4.316;2022-09-01T06:01:04;18.90;99.90
21787;DHT22;11055;50.870;4.316;2022-09-01T06:03:30;18.90;99.90
21787;DHT22;11055;50.870;4.316;2022-09-01T06:06:03;18.80;99.90
21787;DHT22;11055;50.870;4.316;2022-09-01T06:08:33;18.70;99.90
21787;DHT22;11055;50.870;4.316;2022-09-01T06:11:00;18.80;99.90
21787;DHT22;11055;50.870;4.316;2022-09-01T06:13:25;18.90;99.90
21787;DHT22;11055;50.870;4.316;2022-09-01T06:15:52;18.80;99.90
21787;DHT22;11055;50.870;4.316;2022-09-01T06:18:18;18.70;99.90
21787;DHT22;11055;50.870;4.316;2022-09-01T06:20:45;18.80;99.90
21787;DHT22;11055;50.870;4.316;2022-09-01T06:23:12;18.80;99.90
21787;DHT22;11055;50.870;4.316;2022-09-01T06:25:40;18.90;99.90
21787;DHT22;11055;50.870;4.316;2022-09-01T06:28:10;18.80;99.90
21787;DHT22;11055;50.870;4.316;2022-09-01T06:30:37;18.90;99.90
21787;DHT22;11055;50.870;4.316;2022-09-01T06:33:04;18.90;99.90
21787;DHT22;11055;50.870;4.316;2022-09-01T06:35:36;18.90;99.90
21787;DHT22;11055;50.870;4.316;2022-09-01T06:38:03;18.80;99.90
21787;DHT22;11055;50.870;4.316;2022-09-01T06:40:29;18.80;99.90
21787;DHT22;11055;50.870;4.316;2022-09-01T06:42:55;18.90;99.90
21787;DHT22;11055;50.870;4.316;2022-09-01T06:45:21;18.90;99.90
21787;DHT22;11055;50.870;4.316;2022-09-01T06:47:47;18.90;99.90
21787;DHT22;11055;50.870;4.316;2022-09-01T06:50:16;19.00;99.90
21787;DHT22;11055;50.870;4.316;2022-09-01T06:52:44;19.00;99.90
21787;DHT22;11055;50.870;4.316;2022-09-01T06:55:10;19.10;99.90
21787;DHT22;11055;50.870;4.316;2022-09-01T06:57:37;19.20;99.90
21787;DHT22;11055;50.870;4.316;2022-09-01T07:00:04;19.20;99.90
21787;DHT22;11055;50.870;4.316;2022-09-01T07:02:31;19.20;99.90
21787;DHT22;11055;50.870;4.316;2022-09-01T07:04:58;19.30;99.90
21787;DHT22;11055;50.870;4.316;2022-09-01T07:07:23;19.40;99.90
21787;DHT22;11055;50.870;4.316;2022-09-01T07:09:58;19.40;99.90
21787;DHT22;11055;50.870;4.316;2022-09-01T07:12:24;19.40;99.90
21787;DHT22;11055;50.870;4.316;2022-09-01T07:14:49;19.30;99.90
21787;DHT22;11055;50.870;4.316;2022-09-01T07:17:16;19.50;99.90
21787;DHT22;11055;50.870;4.316;2022-09-01T07:19:42;19.50;99.90
21787;DHT22;11055;50.870;4.316;2022-09-01T07:22:08;19.50;99.90
21787;DHT22;11055;50.870;4.316;2022-09-01T07:24:35;19.60;99.90
21787;DHT22;11055;50.870;4.316;2022-09-01T07:27:00;19.70;99.90
21787;DHT22;11055;50.870;4.316;2022-09-01T07:29:26;19.80;99.90
21787;DHT22;11055;50.870;4.316;2022-09-01T07:31:52;19.90;99.90
21787;DHT22;11055;50.870;4.316;2022-09-01T07:34:20;19.70;99.90
21787;DHT22;11055;50.870;4.316;2022-09-01T07:36:46;19.90;99.90
21787;DHT22;11055;50.870;4.316;2022-09-01T07:39:12;19.90;99.90
21787;DHT22;11055;50.870;4.316;2022-09-01T07:41:38;19.90;99.90
21787;DHT22;11055;50.870;4.316;2022-09-01T07:44:07;20.10;99.90
21787;DHT22;11055;50.870;4.316;2022-09-01T07:46:34;20.30;99.90
21787;DHT22;11055;50.870;4.316;2022-09-01T07:49:00;20.40;99.90
21787;DHT22;11055;50.870;4.316;2022-09-01T07:51:27;20.50;99.90
21787;DHT22;11055;50.870;4.316;2022-09-01T07:53:53;20.60;99.90
21787;DHT22;11055;50.870;4.316;2022-09-01T07:56:19;20.80;99.90
21787;DHT22;11055;50.870;4.316;2022-09-01T07:58:45;21.00;99.90
21787;DHT22;11055;50.870;4.316;2022-09-01T08:01:12;21.10;99.90
21787;DHT22;11055;50.870;4.316;2022-09-01T08:03:39;21.00;99.90
21787;DHT22;11055;50.870;4.316;2022-09-01T08:06:06;21.10;99.90
21787;DHT22;11055;50.870;4.316;2022-09-01T08:08:32;21.20;99.90
21787;DHT22;11055;50.870;4.316;2022-09-01T08:10:58;21.30;99.90
21787;DHT22;11055;50.870;4.316;2022-09-01T08:13:23;21.50;99.90
21787;DHT22;11055;50.870;4.316;2022-09-01T08:15:49;21.50;99.90
21787;DHT22;11055;50.870;4.316;2022-09-01T08:18:15;21.50;99.90
21787;DHT22;11055;50.870;4.316;2022-09-01T08:20:41;21.60;99.90
21787;DHT22;11055;50.870;4.316;2022-09-01T08:23:12;21.70;99.90
21787;DHT22;11055;50.870;4.316;2022-09-01T08:25:39;21.70;99.90
21787;DHT22;11055;50.870;4.316;2022-09-01T08:28:05;21.60;99.90
21787;DHT22;11055;50.870;4.316;2022-09-01T08:30:32;21.40;99.90
21787;DHT22;11055;50.870;4.316;2022-09-01T08:32:57;21.40;99.90
21787;DHT22;11055;50.870;4.316;2022-09-01T08:35:23;21.40;99.90
21787;DHT22;11055;50.870;4.316;2022-09-01T08:37:49;21.40;99.90
21787;DHT22;11055;50.870;4.316;2022-09-01T08:40:15;21.50;99.90
21787;DHT22;11055;50.870;4.316;2022-09-01T08:43:28;21.70;99.90
21787;DHT22;11055;50.870;4.316;2022-09-01T08:45:36;21.70;99.90
21787;DHT22;11055;50.870;4.316;2022-09-01T08:48:18;21.70;99.90
21787;DHT22;11055;50.870;4.316;2022-09-01T08:50:44;21.70;99.90
21787;DHT22;11055;50.870;4.316;2022-09-01T08:53:19;21.90;99.90
21787;DHT22;11055;50.870;4.316;2022-09-01T08:55:46;21.80;99.90
21787;DHT22;11055;50.870;4.316;2022-09-01T08:58:14;21.90;99.90
21787;DHT22;11055;50.870;4.316;2022-09-01T09:00:41;21.80;99.90
21787;DHT22;11055;50.870;4.316;2022-09-01T09:11:04;22.00;99.90
21787;DHT22;11055;50.870;4.316;2022-09-01T09:13:34;22.20;99.90
21787;DHT22;11055;50.870;4.316;2022-09-01T09:16:23;22.20;99.90
21787;DHT22;11055;50.870;4.316;2022-09-01T09:18:50;22.20;99.90
21787;DHT22;11055;50.870;4.316;2022-09-01T09:21:29;22.10;99.90
21787;DHT22;11055;50.870;4.316;2022-09-01T09:24:04;22.30;99.90
21787;DHT22;11055;50.870;4.316;2022-09-01T09:26:31;22.30;99.90
21787;DHT22;11055;50.870;4.316;2022-09-01T09:28:56;22.30;99.90
21787;DHT22;11055;50.870;4.316;2022-09-01T09:31:32;22.40;99.90
21787;DHT22;11055;50.870;4.316;2022-09-01T09:33:59;22.40;99.90
21787;DHT22;11055;50.870;4.316;2022-09-01T09:36:32;22.50;99.90
21787;DHT22;11055;50.870;4.316;2022-09-01T09:39:16;22.60;99.90
21787;DHT22;11055;50.870;4.316;2022-09-01T09:41:41;22.60;99.90
21787;DHT22;11055;50.870;4.316;2022-09-01T09:46:37;22.80;99.90
21787;DHT22;11055;50.870;4.316;2022-09-01T09:51:38;22.80;99.90
21787;DHT22;11055;50.870;4.316;2022-09-01T09:54:12;22.90;99.90
21787;DHT22;11055;50.870;4.316;2022-09-01T09:56:38;22.90;99.90
21787;DHT22;11055;50.870;4.316;2022-09-01T10:01:50;22.90;99.90
21787;DHT22;11055;50.870;4.316;2022-09-01T10:04:34;23.10;99.90
21787;DHT22;11055;50.870;4.316;2022-09-01T10:07:08;23.10;99.90
21787;DHT22;11055;50.870;4.316;2022-09-01T10:09:46;23.10;99.90
21787;DHT22;11055;50.870;4.316;2022-09-01T10:12:13;23.20;99.90
21787;DHT22;11055;50.870;4.316;2022-09-01T10:14:44;23.30;99.30
21787;DHT22;11055;50.870;4.316;2022-09-01T10:17:14;23.50;98.90
21787;DHT22;11055;50.870;4.316;2022-09-01T10:19:46;23.40;98.10
21787;DHT22;11055;50.870;4.316;2022-09-01T10:22:12;23.50;98.00
21787;DHT22;11055;50.870;4.316;2022-09-01T10:24:38;23.60;98.20
21787;DHT22;11055;50.870;4.316;2022-09-01T10:27:06;23.60;97.30
21787;DHT22;11055;50.870;4.316;2022-09-01T10:32:05;23.80;95.80
21787;DHT22;11055;50.870;4.316;2022-09-01T10:34:34;23.90;96.30
21787;DHT22;11055;50.870;4.316;2022-09-01T10:37:03;24.00;95.40
21787;DHT22;11055;50.870;4.316;2022-09-01T10:39:30;24.20;96.40
21787;DHT22;11055;50.870;4.316;2022-09-01T10:41:56;24.20;94.40
21787;DHT22;11055;50.870;4.316;2022-09-01T10:44:24;24.30;94.00
21787;DHT22;11055;50.870;4.316;2022-09-01T10:46:55;24.30;94.40
21787;DHT22;11055;50.870;4.316;2022-09-01T10:51:55;24.60;94.20
21787;DHT22;11055;50.870;4.316;2022-09-01T10:57:08;24.90;93.00
21787;DHT22;11055;50.870;4.316;2022-09-01T10:59:35;25.00;92.10
21787;DHT22;11055;50.870;4.316;2022-09-01T11:02:10;25.20;91.70
21787;DHT22;11055;50.870;4.316;2022-09-01T11:07:02;25.30;90.90
21787;DHT22;11055;50.870;4.316;2022-09-01T11:09:38;25.30;92.10
21787;DHT22;11055;50.870;4.316;2022-09-01T11:20:09;25.80;89.70
21787;DHT22;11055;50.870;4.316;2022-09-01T11:22:41;25.80;90.30
21787;DHT22;11055;50.870;4.316;2022-09-01T11:30:17;26.00;90.50
21787;DHT22;11055;50.870;4.316;2022-09-01T11:32:45;26.20;90.10
21787;DHT22;11055;50.870;4.316;2022-09-01T11:35:14;26.20;86.10
21787;DHT22;11055;50.870;4.316;2022-09-01T11:37:40;26.20;87.30
21787;DHT22;11055;50.870;4.316;2022-09-01T11:40:07;26.00;85.70
21787;DHT22;11055;50.870;4.316;2022-09-01T11:42:40;26.20;85.50
21787;DHT22;11055;50.870;4.316;2022-09-01T11:47:41;26.00;83.50
21787;DHT22;11055;50.870;4.316;2022-09-01T11:50:33;26.10;85.20
21787;DHT22;11055;50.870;4.316;2022-09-01T11:52:59;26.30;85.80
21787;DHT22;11055;50.870;4.316;2022-09-01T11:55:46;26.50;85.40
21787;DHT22;11055;50.870;4.316;2022-09-01T11:58:34;26.60;83.20
21787;DHT22;11055;50.870;4.316;2022-09-01T12:01:10;26.90;84.20
21787;DHT22;11055;50.870;4.316;2022-09-01T12:03:36;27.00;82.60
21787;DHT22;11055;50.870;4.316;2022-09-01T12:06:03;27.00;81.80
21787;DHT22;11055;50.870;4.316;2022-09-01T12:08:33;26.90;82.10
21787;DHT22;11055;50.870;4.316;2022-09-01T12:13:28;27.10;81.90
21787;DHT22;11055;50.870;4.316;2022-09-01T12:15:58;27.00;81.20
21787;DHT22;11055;50.870;4.316;2022-09-01T12:18:25;26.80;81.30
21787;DHT22;11055;50.870;4.316;2022-09-01T12:20:53;26.80;84.80
21787;DHT22;11055;50.870;4.316;2022-09-01T12:23:27;26.90;81.00
21787;DHT22;11055;50.870;4.316;2022-09-01T12:25:54;27.10;80.90
21787;DHT22;11055;50.870;4.316;2022-09-01T12:28:23;27.30;81.30
21787;DHT22;11055;50.870;4.316;2022-09-01T12:30:49;27.20;79.50
21787;DHT22;11055;50.870;4.316;2022-09-01T12:33:16;27.20;79.60
21787;DHT22;11055;50.870;4.316;2022-09-01T12:35:43;27.20;80.30
21787;DHT22;11055;50.870;4.316;2022-09-01T12:40:54;27.40;79.60
21787;DHT22;11055;50.870;4.316;2022-09-01T12:43:30;27.30;79.50
21787;DHT22;11055;50.870;4.316;2022-09-01T12:45:56;27.30;78.20
21787;DHT22;11055;50.870;4.316;2022-09-01T12:48:25;27.30;78.90
21787;DHT22;11055;50.870;4.316;2022-09-01T12:50:53;27.30;77.70
21787;DHT22;11055;50.870;4.316;2022-09-01T12:53:19;27.10;80.00
21787;DHT22;11055;50.870;4.316;2022-09-01T12:56:14;27.10;78.40
21787;DHT22;11055;50.870;4.316;2022-09-01T12:58:42;27.30;81.60
21787;DHT22;11055;50.870;4.316;2022-09-01T13:01:09;27.50;76.50
21787;DHT22;11055;50.870;4.316;2022-09-01T13:06:32;27.20;77.80
21787;DHT22;11055;50.870;4.316;2022-09-01T13:08:58;27.20;80.50
21787;DHT22;11055;50.870;4.316;2022-09-01T13:11:23;27.10;77.70
21787;DHT22;11055;50.870;4.316;2022-09-01T13:13:49;27.10;77.80
21787;DHT22;11055;50.870;4.316;2022-09-01T13:16:14;26.90;78.20
21787;DHT22;11055;50.870;4.316;2022-09-01T13:18:41;26.70;78.30
21787;DHT22;11055;50.870;4.316;2022-09-01T13:21:07;26.40;79.30
21787;DHT22;11055;50.870;4.316;2022-09-01T13:23:32;26.60;80.80
21787;DHT22;11055;50.870;4.316;2022-09-01T13:25:58;26.70;80.50
21787;DHT22;11055;50.870;4.316;2022-09-01T13:28:24;26.70;81.20
21787;DHT22;11055;50.870;4.316;2022-09-01T13:30:54;26.90;79.40
21787;DHT22;11055;50.870;4.316;2022-09-01T13:33:20;27.00;79.10
21787;DHT22;11055;50.870;4.316;2022-09-01T13:35:46;27.10;79.50
21787;DHT22;11055;50.870;4.316;2022-09-01T13:38:12;27.00;77.90
21787;DHT22;11055;50.870;4.316;2022-09-01T13:40:40;27.10;77.50
21787;DHT22;11055;50.870;4.316;2022-09-01T13:43:05;26.80;77.50
21787;DHT22;11055;50.870;4.316;2022-09-01T13:45:31;26.60;78.80
21787;DHT22;11055;50.870;4.316;2022-09-01T13:47:57;26.60;79.00
21787;DHT22;11055;50.870;4.316;2022-09-01T13:50:23;26.60;80.00
21787;DHT22;11055;50.870;4.316;2022-09-01T13:52:50;26.60;78.20
21787;DHT22;11055;50.870;4.316;2022-09-01T13:55:18;26.80;79.00
21787;DHT22;11055;50.870;4.316;2022-09-01T13:57:44;26.90;78.20
21787;DHT22;11055;50.870;4.316;2022-09-01T14:00:10;26.90;80.70
21787;DHT22;11055;50.870;4.316;2022-09-01T14:02:38;26.80;78.10
21787;DHT22;11055;50.870;4.316;2022-09-01T14:05:04;26.70;78.90
21787;DHT22;11055;50.870;4.316;2022-09-01T14:07:29;26.50;77.00
21787;DHT22;11055;50.870;4.316;2022-09-01T14:09:56;26.20;76.50
21787;DHT22;11055;50.870;4.316;2022-09-01T14:12:22;26.00;78.40
21787;DHT22;11055;50.870;4.316;2022-09-01T14:14:48;25.80;79.00
21787;DHT22;11055;50.870;4.316;2022-09-01T14:17:14;25.90;79.30
21787;DHT22;11055;50.870;4.316;2022-09-01T14:19:40;26.00;79.50
21787;DHT22;11055;50.870;4.316;2022-09-01T14:22:06;26.10;78.30
21787;DHT22;11055;50.870;4.316;2022-09-01T14:24:33;26.10;81.60
21787;DHT22;11055;50.870;4.316;2022-09-01T14:27:00;26.20;80.10
21787;DHT22;11055;50.870;4.316;2022-09-01T14:29:26;26.20;78.60
21787;DHT22;11055;50.870;4.316;2022-09-01T14:31:51;26.40;79.70
21787;DHT22;11055;50.870;4.316;2022-09-01T14:34:17;26.30;77.30
21787;DHT22;11055;50.870;4.316;2022-09-01T14:36:43;26.30;76.90
21787;DHT22;11055;50.870;4.316;2022-09-01T14:39:09;26.30;78.90
21787;DHT22;11055;50.870;4.316;2022-09-01T14:41:35;26.40;77.60
21787;DHT22;11055;50.870;4.316;2022-09-01T14:44:00;26.30;75.50
21787;DHT22;11055;50.870;4.316;2022-09-01T14:46:27;26.10;76.00
21787;DHT22;11055;50.870;4.316;2022-09-01T14:48:54;26.30;77.70
21787;DHT22;11055;50.870;4.316;2022-09-01T14:51:21;26.30;75.70
21787;DHT22;11055;50.870;4.316;2022-09-01T14:53:48;26.20;75.70
21787;DHT22;11055;50.870;4.316;2022-09-01T14:56:13;26.10;75.70
21787;DHT22;11055;50.870;4.316;2022-09-01T14:58:42;25.90;77.10
21787;DHT22;11055;50.870;4.316;2022-09-01T15:01:09;25.90;76.80
21787;DHT22;11055;50.870;4.316;2022-09-01T15:03:35;25.90;77.40
21787;DHT22;11055;50.870;4.316;2022-09-01T15:06:00;25.80;76.20
21787;DHT22;11055;50.870;4.316;2022-09-01T15:08:26;25.70;76.10
21787;DHT22;11055;50.870;4.316;2022-09-01T15:10:51;25.90;76.70
21787;DHT22;11055;50.870;4.316;2022-09-01T15:13:17;26.00;76.70
21787;DHT22;11055;50.870;4.316;2022-09-01T15:15:42;26.00;76.60
21787;DHT22;11055;50.870;4.316;2022-09-01T15:18:08;26.00;75.70
21787;DHT22;11055;50.870;4.316;2022-09-01T15:20:38;25.90;75.40
21787;DHT22;11055;50.870;4.316;2022-09-01T15:23:14;26.00;75.70
21787;DHT22;11055;50.870;4.316;2022-09-01T15:25:40;26.20;75.40
21787;DHT22;11055;50.870;4.316;2022-09-01T15:28:05;26.30;75.50
21787;DHT22;11055;50.870;4.316;2022-09-01T15:30:31;26.10;74.70
21787;DHT22;11055;50.870;4.316;2022-09-01T15:32:57;26.00;74.70
21787;DHT22;11055;50.870;4.316;2022-09-01T15:35:23;26.00;74.90
21787;DHT22;11055;50.870;4.316;2022-09-01T15:37:49;26.10;74.60
21787;DHT22;11055;50.870;4.316;2022-09-01T15:40:15;26.20;73.40
21787;DHT22;11055;50.870;4.316;2022-09-01T15:42:41;26.10;73.50
21787;DHT22;11055;50.870;4.316;2022-09-01T15:45:08;26.00;73.40
21787;DHT22;11055;50.870;4.316;2022-09-01T15:47:33;26.10;73.10
21787;DHT22;11055;50.870;4.316;2022-09-01T15:49:59;26.10;73.40
21787;DHT22;11055;50.870;4.316;2022-09-01T15:52:25;26.00;71.80
21787;DHT22;11055;50.870;4.316;2022-09-01T15:54:51;25.90;72.90
21787;DHT22;11055;50.870;4.316;2022-09-01T15:57:17;25.90;73.30
21787;DHT22;11055;50.870;4.316;2022-09-01T15:59:43;26.00;72.70
21787;DHT22;11055;50.870;4.316;2022-09-01T16:02:09;26.00;73.10
21787;DHT22;11055;50.870;4.316;2022-09-01T16:04:37;26.00;71.40
21787;DHT22;11055;50.870;4.316;2022-09-01T16:07:03;25.90;71.40
21787;DHT22;11055;50.870;4.316;2022-09-01T16:09:29;25.90;72.40
21787;DHT22;11055;50.870;4.316;2022-09-01T16:11:55;26.00;70.60
21787;DHT22;11055;50.870;4.316;2022-09-01T16:14:20;26.00;73.30
21787;DHT22;11055;50.870;4.316;2022-09-01T16:19:17;26.00;71.50
21787;DHT22;11055;50.870;4.316;2022-09-01T16:24:20;26.20;71.60
21787;DHT22;11055;50.870;4.316;2022-09-01T16:26:47;26.10;69.60
21787;DHT22;11055;50.870;4.316;2022-09-01T16:31:48;25.60;70.40